Ana Sayfa
METAR-TAF:

METAR-TAF

Havaalanları :

Laredo, Teksas, Amerika Birleşik Devletleri

Enlem: 27-33N, Boylam: 099-28W, yükseklik: 155 m

Güncel hava durumu gözlemi

Rapor saat 04:56 UTC de 57 dakika önce yapıldı.
Rüzgar güneydoğudan 11 kt
Sıcaklık 28°C
Nem 66%
Basınç 1014 hPa
Görüş mesafesi: 16.1 km
Açık gökyüzü

METAR: KLRD 160456Z AUTO 14011KT 10SM CLR 28/21 A2995 RMK AO2 SLP137 T02830206

Saat: 00:53 (05:53 UTC)

Tahmin

Rapor saat 05:20 UTC de 33 dakika önce yapıldı.
Ayın 16'si saat 06 UTC'den ayın 17'si saat 06 UTC'ye kadar geçerli Tahmin
Rüzgar güneydoğudan 8 kt
Görüş mesafesi: 10 km
2500 ft yükseklikte az bulutlu
25000 ft yükseklikte parçalı çok bulutlu
Ayın 16'si saat 1800 UTC'den
Rüzgar güneydoğudan 12 kt ve 20 kt'a kadar ani rüzgarlar
Görüş mesafesi: 10 km
25000 ft yükseklikte parçalı bulutlu

TAF: KLRD 160520Z 1606/1706 14008KT P6SM FEW025 BKN250 FM161800 14012G20KT P6SM SCT250

4.000'den fazla havaalanı için hava durumu gözlemleri ve tahminleri (METAR ve TAF raporları).

Kullanılabilir istasyonlar harita üzerinde sarı ve kırmızı noktalarla gösterilir.

İstasyonun adını görmek için fareyi noktanın üzerinde gezdirin.

Sonrasında hava gözlem ve tahminlerini görmek için tıklayın.

Haritayı değiştirmek için: yaklaştırmak için siyah artı işaretli yeşil düğmeye ve uzaklaştırmak için de eksi işaretli düğmeye hızla tıklayın; bitişik haritalar için yeşil okları kullanın.


METAR-TAF: